This is the latest recevied weather packets stored in our database for station/object HG6IEP-10. If no packets are shown the sender has not sent any weather packets the latest 10 day(s).
| Time | Temp. | Humidity | Pressure | Rain* | Wind** | Luminosity | Snow |
|---|---|---|---|---|---|---|---|
| 1777620222 | 9.44° C | 33% | 1004 hPa | - | - | - | - |
| 1777616618 | 5.56° C | 37% | 1004 hPa | - | - | - | - |
| 1777613014 | 2.22° C | 40% | 1004 hPa | - | - | - | - |
| 1777609410 | 1.11° C | 42% | 1004 hPa | - | - | - | - |
| 1777605814 | 0.56° C | - | - | - | - | - | - |
| 1777605806 | 0.56° C | 44% | 1004 hPa | - | - | - | - |
| 1777602201 | 1.67° C | 44% | 1004 hPa | - | - | - | - |
| 1777598598 | 2.78° C | 44% | 1004 hPa | - | - | - | - |
| 1777594994 | 4.44° C | 44% | 1004 hPa | - | - | - | - |
| 1777591390 | 6.11° C | 44% | 1004 hPa | - | - | - | - |
| 1777587786 | 8.33° C | 43% | 1004 hPa | - | - | - | - |
| 1777584182 | 11.11° C | 41% | 1003 hPa | - | - | - | - |
| 1777580578 | 13.33° C | 41% | 1003 hPa | - | - | - | - |
| 1777576974 | 16.67° C | 39% | 1003 hPa | - | - | - | - |
| 1777573370 | 20.56° C | 35% | 1002 hPa | - | - | - | - |
| 1777569766 | 26.11° C | 29% | 1001 hPa | - | - | - | - |
| 1777566162 | 28.89° C | 24% | 1001 hPa | - | - | - | - |
| 1777562558 | 31.11° C | 20% | 1001 hPa | - | - | - | - |
| 1777558954 | 31.11° C | 21% | 1001 hPa | - | - | - | - |
| 1777555350 | 30.56° C | 21% | 1002 hPa | - | - | - | - |
| 1777551746 | 29.44° C | 20% | 1003 hPa | - | - | - | - |
| 1777548142 | 27.22° C | 22% | 1003 hPa | - | - | - | - |
| 1777544538 | 23.33° C | 25% | 1004 hPa | - | - | - | - |
| 1777540934 | 20.56° C | 26% | 1004 hPa | - | - | - | - |
| 1777537330 | 16.67° C | 28% | 1004 hPa | - | - | - | - |
* Rain since midnight (hover to see other rain measurements)
** Current wind speed in m/s (hover to see current wind gust speed)